createdAt,value
2017-08-25T00:02:25.772Z,96.60
2017-08-25T00:04:54.072Z,96.50
2017-08-25T00:07:22.344Z,96.50
2017-08-25T00:09:50.642Z,96.50
2017-08-25T00:12:18.945Z,96.70
2017-08-25T00:14:47.216Z,96.70
2017-08-25T00:17:15.480Z,96.60
2017-08-25T00:19:43.774Z,96.70
2017-08-25T00:22:12.083Z,96.80
2017-08-25T00:24:40.368Z,96.80
2017-08-25T00:27:08.632Z,96.90
2017-08-25T00:29:36.932Z,97.20
2017-08-25T00:32:05.273Z,97.10
2017-08-25T00:34:33.544Z,97.30
2017-08-25T00:37:01.817Z,97.30
2017-08-25T00:39:30.100Z,97.30
2017-08-25T00:41:58.366Z,97.10
2017-08-25T00:44:26.665Z,97.30
2017-08-25T00:46:54.921Z,97.20
2017-08-25T00:49:23.176Z,97.30
2017-08-25T00:51:51.469Z,97.40
2017-08-25T00:54:19.769Z,97.50
2017-08-25T00:56:48.032Z,97.60
2017-08-25T00:59:16.330Z,97.80
2017-08-25T01:01:44.592Z,97.90
2017-08-25T01:04:12.888Z,98.00
2017-08-25T01:06:41.139Z,98.20
2017-08-25T01:09:09.418Z,98.30
2017-08-25T01:11:37.704Z,98.60
2017-08-25T01:14:06.009Z,98.50
2017-08-25T01:16:34.264Z,98.60
2017-08-25T01:19:02.532Z,98.60
2017-08-25T01:21:30.832Z,98.60
2017-08-25T01:23:59.101Z,98.50
2017-08-25T01:26:27.389Z,98.50
2017-08-25T01:28:55.648Z,98.50
2017-08-25T01:31:23.914Z,98.50
2017-08-25T01:33:52.171Z,98.60
2017-08-25T01:36:20.445Z,98.80
2017-08-25T01:38:48.698Z,98.90
2017-08-25T01:41:16.992Z,98.60
2017-08-25T01:43:45.256Z,98.60
2017-08-25T01:46:13.528Z,98.90
2017-08-25T01:48:41.804Z,98.80
2017-08-25T01:51:10.054Z,98.80
2017-08-25T01:53:38.325Z,98.90
2017-08-25T01:56:06.591Z,98.90
2017-08-25T01:58:34.889Z,98.90
2017-08-25T02:01:03.140Z,99.00
2017-08-25T02:03:31.388Z,99.20
2017-08-25T02:05:59.664Z,99.10
2017-08-25T02:08:27.941Z,99.20
2017-08-25T02:10:56.215Z,99.20
2017-08-25T02:13:24.505Z,99.30
2017-08-25T02:15:52.778Z,99.20
2017-08-25T02:18:21.040Z,99.60
2017-08-25T02:20:49.312Z,99.30
2017-08-25T02:23:17.589Z,99.00
2017-08-25T02:25:45.831Z,99.00
2017-08-25T02:28:14.111Z,99.20
2017-08-25T02:30:42.368Z,99.20
2017-08-25T02:33:10.648Z,99.20
2017-08-25T02:35:38.909Z,99.20
2017-08-25T02:38:07.204Z,99.10
2017-08-25T02:40:35.466Z,99.20
2017-08-25T02:43:03.726Z,99.30
2017-08-25T02:45:32.003Z,99.30
2017-08-25T02:48:00.266Z,99.20
2017-08-25T02:50:28.538Z,99.60
2017-08-25T02:52:56.828Z,99.40
2017-08-25T02:55:25.079Z,99.20
2017-08-25T02:57:53.368Z,99.30
2017-08-25T03:00:20.851Z,99.60
2017-08-25T03:02:49.107Z,99.20
2017-08-25T03:05:17.388Z,99.20
2017-08-25T03:07:45.657Z,99.30
2017-08-25T03:10:13.929Z,99.40
2017-08-25T03:12:42.197Z,99.50
2017-08-25T03:15:10.493Z,99.00
2017-08-25T03:17:38.765Z,99.10
2017-08-25T03:20:07.017Z,99.30
2017-08-25T03:22:35.322Z,99.30
2017-08-25T03:25:03.584Z,99.40
2017-08-25T03:27:31.856Z,99.60
2017-08-25T03:30:00.130Z,99.60
2017-08-25T03:32:28.457Z,99.10
2017-08-25T03:34:56.710Z,99.10
2017-08-25T03:37:24.964Z,99.20
2017-08-25T03:39:53.268Z,99.40
2017-08-25T03:42:21.529Z,99.40
2017-08-25T03:44:49.795Z,99.20
2017-08-25T03:47:18.069Z,99.00
2017-08-25T03:49:46.320Z,99.30
2017-08-25T03:52:14.601Z,99.30
2017-08-25T03:54:42.895Z,99.40
2017-08-25T03:57:11.138Z,99.50
2017-08-25T03:59:39.436Z,99.60
2017-08-25T04:02:07.691Z,99.80
2017-08-25T04:04:35.944Z,99.70
2017-08-25T04:07:04.219Z,99.70
2017-08-25T04:09:32.484Z,99.70
2017-08-25T04:12:00.773Z,99.90
2017-08-25T04:14:29.031Z,99.70
2017-08-25T04:16:57.323Z,99.80
2017-08-25T04:19:25.584Z,99.60
2017-08-25T04:21:53.863Z,99.60
2017-08-25T04:24:22.124Z,99.70
2017-08-25T04:26:50.396Z,99.80
2017-08-25T04:29:18.657Z,99.90
2017-08-25T04:31:46.979Z,99.90
2017-08-25T04:34:15.239Z,99.90
2017-08-25T04:36:43.492Z,99.90
2017-08-25T04:39:10.998Z,99.90
2017-08-25T04:41:39.261Z,99.90
2017-08-25T04:44:07.544Z,99.90
2017-08-25T04:46:35.812Z,99.90
2017-08-25T04:49:04.078Z,99.90
2017-08-25T04:51:32.355Z,99.90
2017-08-25T04:54:00.628Z,99.90
2017-08-25T04:56:28.882Z,99.90
2017-08-25T04:58:57.188Z,99.90
2017-08-25T05:01:25.458Z,99.90
2017-08-25T05:03:53.719Z,99.90
2017-08-25T05:06:21.227Z,99.90
2017-08-25T05:08:49.495Z,99.90
2017-08-25T05:11:17.768Z,99.90
2017-08-25T05:13:46.027Z,99.90
2017-08-25T05:16:14.446Z,99.90
2017-08-25T05:18:42.711Z,99.90
2017-08-25T05:21:10.973Z,99.90
2017-08-25T05:23:39.244Z,99.90
2017-08-25T05:26:07.500Z,99.90
2017-08-25T05:28:35.768Z,99.90
2017-08-25T05:31:04.025Z,99.90
2017-08-25T05:33:32.316Z,99.90
2017-08-25T05:36:00.567Z,99.90
2017-08-25T05:38:28.850Z,99.90
2017-08-25T05:40:57.131Z,99.90
2017-08-25T05:43:25.393Z,99.90
2017-08-25T05:45:53.687Z,99.90
2017-08-25T05:48:21.986Z,99.90
2017-08-25T05:50:50.257Z,99.90
2017-08-25T05:53:18.677Z,99.90
2017-08-25T05:55:46.976Z,99.90
2017-08-25T05:58:15.248Z,99.90
2017-08-25T06:00:43.514Z,99.90
2017-08-25T06:03:11.788Z,99.90
2017-08-25T06:05:40.048Z,99.90
2017-08-25T06:08:08.347Z,99.90
2017-08-25T06:10:36.619Z,99.90
2017-08-25T06:13:04.882Z,99.90
2017-08-25T06:15:33.142Z,99.90
2017-08-25T06:18:01.407Z,99.90
2017-08-25T06:20:29.708Z,99.90
2017-08-25T06:22:57.959Z,99.90
2017-08-25T06:25:26.219Z,99.90
2017-08-25T06:27:53.729Z,99.90
2017-08-25T06:30:22.008Z,99.90
2017-08-25T06:32:50.263Z,99.90
2017-08-25T06:35:18.580Z,99.90
2017-08-25T06:37:46.846Z,99.90
2017-08-25T06:40:15.107Z,99.90
2017-08-25T06:42:43.383Z,99.90
2017-08-25T06:45:11.647Z,99.90
2017-08-25T06:47:39.931Z,99.90
2017-08-25T06:50:08.195Z,99.90
2017-08-25T06:52:36.498Z,99.90
2017-08-25T06:55:04.760Z,99.90
2017-08-25T06:57:33.019Z,99.70
2017-08-25T07:00:01.299Z,99.90
2017-08-25T07:02:29.570Z,99.20
2017-08-25T07:04:57.877Z,99.30
2017-08-25T07:07:26.145Z,99.60
2017-08-25T07:09:54.403Z,99.90
2017-08-25T07:12:22.694Z,99.50
2017-08-25T07:14:50.949Z,99.70
2017-08-25T07:17:19.264Z,99.90
2017-08-25T07:19:47.530Z,99.90
2017-08-25T07:22:15.791Z,99.90
2017-08-25T07:24:44.071Z,99.90
2017-08-25T07:27:12.328Z,98.40
2017-08-25T07:29:40.604Z,99.30
2017-08-25T07:32:08.870Z,99.40
2017-08-25T07:34:37.167Z,99.20
2017-08-25T07:37:05.455Z,98.60
2017-08-25T07:39:33.747Z,98.80
2017-08-25T07:42:02.009Z,98.70
2017-08-25T07:44:30.269Z,98.70
2017-08-25T07:46:58.547Z,99.20
2017-08-25T07:49:26.801Z,99.60
2017-08-25T07:51:55.095Z,98.70
2017-08-25T07:54:23.408Z,98.30
2017-08-25T07:56:51.671Z,97.50
2017-08-25T07:59:19.923Z,97.50
2017-08-25T08:01:48.210Z,98.70
2017-08-25T08:04:16.491Z,98.60
2017-08-25T08:06:44.751Z,98.80
2017-08-25T08:09:13.052Z,96.80
2017-08-25T08:11:41.304Z,97.20
2017-08-25T08:14:09.579Z,97.10
2017-08-25T08:16:37.839Z,97.70
2017-08-25T08:19:06.153Z,96.30
2017-08-25T08:21:34.408Z,96.70
2017-08-25T08:24:02.665Z,96.70
2017-08-25T08:26:30.939Z,96.70
2017-08-25T08:28:59.197Z,94.80
2017-08-25T08:31:27.473Z,94.80
2017-08-25T08:33:55.732Z,95.70
2017-08-25T08:36:29.608Z,96.60
2017-08-25T08:38:57.883Z,96.50
2017-08-25T08:41:26.135Z,96.30
2017-08-25T08:43:54.429Z,93.50
2017-08-25T08:46:22.697Z,94.20
2017-08-25T08:48:50.973Z,95.80
2017-08-25T08:51:19.231Z,94.90
2017-08-25T08:53:47.513Z,93.90
2017-08-25T08:56:15.766Z,93.80
2017-08-25T08:58:44.062Z,93.90
2017-08-25T09:01:12.324Z,94.10
2017-08-25T09:03:40.576Z,94.80
2017-08-25T09:06:14.581Z,93.80
2017-08-25T09:08:42.853Z,92.40
2017-08-25T09:11:11.138Z,92.70
2017-08-25T09:13:39.401Z,92.60
2017-08-25T09:16:07.689Z,92.80
2017-08-25T09:18:35.939Z,92.80
2017-08-25T09:21:04.211Z,92.80
2017-08-25T09:23:32.489Z,94.10
2017-08-25T09:26:00.781Z,94.30
2017-08-25T09:28:29.089Z,94.50
2017-08-25T09:30:57.352Z,92.00
2017-08-25T09:33:25.624Z,92.70
2017-08-25T09:35:53.916Z,91.90
2017-08-25T09:38:22.210Z,91.30
2017-08-25T09:40:50.479Z,90.40
2017-08-25T09:43:18.763Z,92.80
2017-08-25T09:45:47.024Z,92.00
2017-08-25T09:48:17.296Z,92.30
2017-08-25T09:50:45.555Z,92.10
2017-08-25T09:53:13.823Z,90.50
2017-08-25T09:55:42.099Z,88.60
2017-08-25T09:58:10.362Z,90.30
2017-08-25T10:00:38.659Z,90.90
2017-08-25T10:03:06.922Z,89.60
2017-08-25T10:05:35.204Z,89.50
2017-08-25T10:08:03.488Z,90.10
2017-08-25T10:10:31.780Z,92.10
2017-08-25T10:13:00.185Z,91.60
2017-08-25T10:15:28.453Z,91.90
2017-08-25T10:17:56.713Z,91.20
2017-08-25T10:20:24.988Z,90.90
2017-08-25T10:22:53.240Z,89.10
2017-08-25T10:25:21.540Z,84.70
2017-08-25T10:27:49.800Z,85.60
2017-08-25T10:30:18.116Z,90.30
2017-08-25T10:32:46.378Z,88.10
2017-08-25T10:35:26.660Z,85.80
2017-08-25T10:38:06.658Z,83.60
2017-08-25T10:40:46.889Z,80.70
2017-08-25T10:43:26.897Z,83.50
2017-08-25T10:45:55.197Z,83.30
2017-08-25T10:48:23.460Z,85.40
2017-08-25T10:50:51.734Z,89.10
2017-08-25T10:53:20.002Z,81.80
2017-08-25T10:55:48.267Z,79.00
2017-08-25T10:58:16.548Z,84.30
2017-08-25T11:00:44.809Z,82.40
2017-08-25T11:03:13.091Z,80.30
2017-08-25T11:05:41.352Z,79.20
2017-08-25T11:08:09.643Z,82.90
2017-08-25T11:10:37.940Z,85.20
2017-08-25T11:13:06.191Z,80.70
2017-08-25T11:15:34.460Z,82.30
2017-08-25T11:18:02.760Z,82.70
2017-08-25T11:20:31.027Z,84.40
2017-08-25T11:22:59.320Z,80.00
2017-08-25T11:25:27.589Z,81.30
2017-08-25T11:27:55.844Z,85.40
2017-08-25T11:30:24.125Z,80.90
2017-08-25T11:32:52.384Z,81.20
2017-08-25T11:35:20.695Z,80.90
2017-08-25T11:37:48.960Z,78.50
2017-08-25T11:40:17.220Z,77.10
2017-08-25T11:42:46.478Z,81.70
2017-08-25T11:45:14.737Z,82.00
2017-08-25T11:47:42.997Z,82.50
2017-08-25T11:50:11.266Z,82.60
2017-08-25T11:52:39.560Z,81.80
2017-08-25T11:55:07.818Z,80.50
2017-08-25T11:57:36.159Z,81.30
2017-08-25T12:00:03.674Z,80.60
2017-08-25T12:02:31.936Z,80.90
2017-08-25T12:05:00.255Z,76.80
2017-08-25T12:07:28.518Z,81.00
2017-08-25T12:09:56.778Z,81.50
2017-08-25T12:12:25.064Z,79.10
2017-08-25T12:14:53.357Z,78.50
2017-08-25T12:17:21.657Z,75.50
2017-08-25T12:19:49.920Z,74.40
2017-08-25T12:22:18.182Z,76.40
2017-08-25T12:24:46.460Z,73.70
2017-08-25T12:27:14.720Z,73.10
2017-08-25T12:29:42.994Z,73.10
2017-08-25T12:32:13.264Z,75.60
2017-08-25T12:34:41.543Z,72.90
2017-08-25T12:37:09.811Z,75.70
2017-08-25T12:39:37.325Z,75.70
2017-08-25T12:42:06.593Z,73.20
2017-08-25T12:44:34.883Z,73.40
2017-08-25T12:47:03.137Z,75.50
2017-08-25T12:49:31.426Z,80.30
2017-08-25T12:51:59.684Z,75.20
2017-08-25T12:54:27.962Z,78.30
2017-08-25T12:56:56.365Z,82.10
2017-08-25T12:59:24.638Z,72.20
2017-08-25T13:01:52.898Z,78.10
2017-08-25T13:04:21.164Z,79.20
2017-08-25T13:06:49.444Z,75.50
2017-08-25T13:09:16.967Z,76.20
2017-08-25T13:11:45.248Z,77.90
2017-08-25T13:14:13.500Z,80.80
2017-08-25T13:16:41.001Z,80.80
2017-08-25T13:19:09.269Z,75.10
2017-08-25T13:21:37.565Z,76.80
2017-08-25T13:24:05.826Z,79.90
2017-08-25T13:26:34.160Z,76.80
2017-08-25T13:29:02.424Z,74.50
2017-08-25T13:31:30.687Z,76.00
2017-08-25T13:33:58.967Z,81.40
2017-08-25T13:36:27.229Z,78.30
2017-08-25T13:38:55.495Z,79.50
2017-08-25T13:41:23.798Z,80.00
2017-08-25T13:43:52.053Z,77.10
2017-08-25T13:46:20.327Z,78.20
2017-08-25T13:48:48.608Z,78.50
2017-08-25T13:51:16.876Z,77.80
2017-08-25T13:53:45.146Z,75.20
2017-08-25T13:56:13.415Z,76.30
2017-08-25T13:58:40.947Z,76.20
2017-08-25T14:01:09.270Z,79.80
2017-08-25T14:03:37.528Z,76.20
2017-08-25T14:06:05.789Z,76.80
2017-08-25T14:08:34.072Z,78.70
2017-08-25T14:11:02.357Z,79.20
2017-08-25T14:13:30.635Z,78.10
2017-08-25T14:15:58.897Z,78.50
2017-08-25T14:18:27.168Z,81.50
2017-08-25T14:20:55.444Z,80.20
2017-08-25T14:23:23.708Z,80.70
2017-08-25T14:25:51.990Z,78.60
2017-08-25T14:28:20.247Z,80.50
2017-08-25T14:30:48.534Z,80.60
2017-08-25T14:33:16.795Z,80.60
2017-08-25T14:35:45.085Z,81.50
2017-08-25T14:38:13.352Z,82.40
2017-08-25T14:40:41.637Z,82.70
2017-08-25T14:43:09.900Z,81.80
2017-08-25T14:45:38.169Z,81.40
2017-08-25T14:48:06.493Z,82.40
2017-08-25T14:50:34.769Z,80.70
2017-08-25T14:53:03.019Z,80.50
2017-08-25T14:55:31.294Z,80.00
2017-08-25T14:57:59.557Z,80.90
2017-08-25T15:00:27.854Z,80.00
2017-08-25T15:02:56.106Z,77.50
2017-08-25T15:05:24.368Z,81.30
2017-08-25T15:07:52.646Z,80.80
2017-08-25T15:10:20.916Z,78.60
2017-08-25T15:12:49.183Z,77.30
2017-08-25T15:15:17.450Z,77.70
2017-08-25T15:17:45.734Z,79.50
2017-08-25T15:20:13.987Z,80.60
2017-08-25T15:22:42.283Z,83.90
2017-08-25T15:25:10.543Z,83.50
2017-08-25T15:27:38.842Z,80.50
2017-08-25T15:30:07.105Z,80.10
2017-08-25T15:32:35.394Z,81.50
2017-08-25T15:35:03.669Z,80.50
2017-08-25T15:37:32.137Z,80.70
2017-08-25T15:40:00.424Z,83.10
2017-08-25T15:42:28.692Z,83.70
2017-08-25T15:44:56.986Z,81.10
2017-08-25T15:47:25.259Z,81.70
2017-08-25T15:49:52.756Z,81.70
2017-08-25T15:52:21.031Z,80.10
2017-08-25T15:54:49.300Z,82.00
2017-08-25T15:57:17.586Z,79.70
2017-08-25T15:59:45.853Z,81.80
2017-08-25T16:02:14.150Z,83.50
2017-08-25T16:04:42.441Z,83.50
2017-08-25T16:07:10.704Z,83.40
2017-08-25T16:09:39.002Z,82.20
2017-08-25T16:12:07.264Z,81.80
2017-08-25T16:14:35.548Z,82.20
2017-08-25T16:17:03.820Z,81.30
2017-08-25T16:19:32.066Z,82.00
2017-08-25T16:22:00.345Z,81.60
2017-08-25T16:24:28.616Z,83.10
2017-08-25T16:26:56.898Z,82.20
2017-08-25T16:29:25.150Z,82.80
2017-08-25T16:31:53.428Z,83.30
2017-08-25T16:34:21.692Z,84.10
2017-08-25T16:36:50.009Z,83.20
2017-08-25T16:39:17.510Z,83.20
2017-08-25T16:41:45.777Z,83.30
2017-08-25T16:44:14.053Z,82.90
2017-08-25T16:46:42.309Z,82.60
2017-08-25T16:49:10.596Z,82.20
2017-08-25T16:51:38.852Z,82.70
2017-08-25T16:54:07.148Z,83.10
2017-08-25T16:56:35.421Z,83.30
2017-08-25T16:59:03.672Z,82.70
2017-08-25T17:01:31.179Z,82.70
2017-08-25T17:03:59.437Z,82.50
2017-08-25T17:06:27.712Z,83.90
2017-08-25T17:08:55.975Z,83.50
2017-08-25T17:11:24.265Z,83.30
2017-08-25T17:13:52.515Z,82.70
2017-08-25T17:16:20.793Z,82.90
2017-08-25T17:18:49.046Z,83.10
2017-08-25T17:21:17.343Z,83.60
2017-08-25T17:23:45.597Z,83.80
2017-08-25T17:26:13.850Z,84.60
2017-08-25T17:28:42.121Z,84.70
2017-08-25T17:31:10.390Z,84.90
2017-08-25T17:33:38.670Z,84.90
2017-08-25T17:36:06.935Z,84.70
2017-08-25T17:38:35.212Z,82.70
2017-08-25T17:41:03.473Z,83.70
2017-08-25T17:43:31.748Z,84.00
2017-08-25T17:46:00.033Z,83.70
2017-08-25T17:48:28.295Z,85.40
2017-08-25T17:50:58.574Z,84.80
2017-08-25T17:53:26.829Z,84.50
2017-08-25T17:55:55.111Z,85.20
2017-08-25T17:58:23.373Z,85.20
2017-08-25T18:00:51.652Z,85.50
2017-08-25T18:03:19.912Z,84.50
2017-08-25T18:05:48.218Z,85.40
2017-08-25T18:08:16.489Z,85.50
2017-08-25T18:10:44.000Z,85.50
2017-08-25T18:13:13.273Z,85.80
2017-08-25T18:15:41.554Z,85.00
2017-08-25T18:18:09.810Z,84.80
2017-08-25T18:20:38.094Z,85.70
2017-08-25T18:23:06.362Z,85.90
2017-08-25T18:25:34.648Z,86.00
2017-08-25T18:28:02.911Z,86.40
2017-08-25T18:30:31.187Z,86.60
2017-08-25T18:32:59.460Z,87.70
2017-08-25T18:35:27.717Z,87.60
2017-08-25T18:37:55.999Z,87.70
2017-08-25T18:40:24.256Z,86.90
2017-08-25T18:42:52.539Z,87.40
2017-08-25T18:45:20.809Z,87.30
2017-08-25T18:47:49.074Z,86.90
2017-08-25T18:50:17.347Z,87.70
2017-08-25T18:52:45.606Z,88.50
2017-08-25T18:55:13.920Z,88.50
2017-08-25T18:57:42.234Z,88.50
2017-08-25T19:00:10.506Z,88.70
2017-08-25T19:02:38.776Z,88.30
2017-08-25T19:05:07.046Z,88.50
2017-08-25T19:07:35.378Z,87.00
2017-08-25T19:10:03.636Z,87.60
2017-08-25T19:12:31.891Z,87.60
2017-08-25T19:15:00.165Z,87.20
2017-08-25T19:17:28.427Z,87.90
2017-08-25T19:19:55.968Z,87.90
2017-08-25T19:22:24.233Z,88.30
2017-08-25T19:24:52.488Z,89.10
2017-08-25T19:27:20.759Z,88.90
2017-08-25T19:29:49.026Z,89.30
2017-08-25T19:32:17.296Z,88.00
2017-08-25T19:34:45.627Z,88.20
2017-08-25T19:37:13.880Z,89.40
2017-08-25T19:39:42.145Z,89.00
2017-08-25T19:42:10.429Z,88.60
2017-08-25T19:44:38.689Z,89.10
2017-08-25T19:47:06.981Z,88.80
2017-08-25T19:49:35.296Z,88.50
2017-08-25T19:52:03.563Z,88.50
2017-08-25T19:54:31.848Z,88.70
2017-08-25T19:57:00.108Z,88.80
2017-08-25T19:59:28.374Z,88.80
2017-08-25T20:01:56.658Z,90.00
2017-08-25T20:04:24.955Z,90.10
2017-08-25T20:06:53.215Z,90.00
2017-08-25T20:09:21.486Z,88.90
2017-08-25T20:11:50.307Z,89.40
2017-08-25T20:14:18.559Z,89.20
2017-08-25T20:16:46.853Z,88.70
2017-08-25T20:19:15.107Z,89.70
2017-08-25T20:21:43.356Z,89.70
2017-08-25T20:24:11.643Z,90.00
2017-08-25T20:26:39.911Z,89.30
2017-08-25T20:29:08.203Z,89.90
2017-08-25T20:31:38.468Z,90.40
2017-08-25T20:34:06.765Z,90.60
2017-08-25T20:36:35.020Z,90.90
2017-08-25T20:39:03.275Z,90.90
2017-08-25T20:41:31.557Z,90.80
2017-08-25T20:43:59.818Z,90.40
2017-08-25T20:46:28.120Z,90.30
2017-08-25T20:48:56.382Z,90.30
2017-08-25T20:51:24.641Z,90.70
2017-08-25T20:53:52.918Z,90.80
2017-08-25T20:56:21.191Z,90.40
2017-08-25T20:58:49.469Z,90.60
2017-08-25T21:01:17.739Z,90.40
2017-08-25T21:03:46.028Z,90.40
2017-08-25T21:06:14.292Z,90.90
2017-08-25T21:08:42.548Z,90.60
2017-08-25T21:11:10.830Z,90.70
2017-08-25T21:13:39.087Z,90.40
2017-08-25T21:16:07.352Z,90.70
2017-08-25T21:18:35.600Z,90.70
2017-08-25T21:21:03.917Z,90.90
2017-08-25T21:23:32.186Z,90.70
2017-08-25T21:26:00.499Z,91.10
2017-08-25T21:28:28.743Z,91.40
2017-08-25T21:30:57.069Z,91.50
2017-08-25T21:33:25.321Z,91.60
2017-08-25T21:35:53.580Z,91.10
2017-08-25T21:38:21.856Z,91.90
2017-08-25T21:40:50.115Z,91.70
2017-08-25T21:43:18.407Z,91.50
2017-08-25T21:45:46.701Z,91.60
2017-08-25T21:48:14.970Z,91.90
2017-08-25T21:50:43.256Z,91.70
2017-08-25T21:53:11.517Z,91.20
2017-08-25T21:55:39.830Z,91.30
2017-08-25T21:58:08.078Z,90.90
2017-08-25T22:00:36.345Z,92.00
2017-08-25T22:03:04.622Z,92.10
2017-08-25T22:05:32.885Z,92.30
2017-08-25T22:08:01.191Z,92.20
2017-08-25T22:10:29.451Z,92.50
2017-08-25T22:12:57.725Z,92.60
2017-08-25T22:15:26.005Z,92.60
2017-08-25T22:17:54.293Z,92.90
2017-08-25T22:20:22.609Z,93.00
2017-08-25T22:22:50.889Z,92.80
2017-08-25T22:25:19.140Z,93.30
2017-08-25T22:27:47.417Z,93.60
2017-08-25T22:30:15.684Z,92.80
2017-08-25T22:32:43.976Z,92.10
2017-08-25T22:35:12.240Z,92.50
2017-08-25T22:37:40.559Z,93.00
2017-08-25T22:40:08.812Z,93.20
2017-08-25T22:42:37.093Z,93.40
2017-08-25T22:45:05.403Z,93.70
2017-08-25T22:47:33.713Z,93.50
2017-08-25T22:50:01.981Z,93.90
2017-08-25T22:52:30.232Z,93.80
2017-08-25T22:54:58.503Z,94.10
2017-08-25T22:57:26.772Z,93.20
2017-08-25T22:59:55.092Z,92.70
2017-08-25T23:02:23.344Z,92.80
2017-08-25T23:04:51.604Z,93.10
2017-08-25T23:07:19.907Z,93.50
2017-08-25T23:09:48.173Z,94.00
2017-08-25T23:12:16.428Z,93.80
2017-08-25T23:14:44.712Z,93.80
2017-08-25T23:17:12.968Z,93.50
2017-08-25T23:19:41.275Z,93.60
2017-08-25T23:22:09.540Z,93.80
2017-08-25T23:24:37.803Z,94.20
2017-08-25T23:27:06.092Z,94.30
2017-08-25T23:29:34.352Z,94.40
2017-08-25T23:32:02.678Z,94.40
2017-08-25T23:34:30.944Z,93.70
2017-08-25T23:36:59.201Z,94.10
2017-08-25T23:39:27.495Z,94.40
2017-08-25T23:41:55.754Z,94.40
2017-08-25T23:44:24.040Z,94.60
2017-08-25T23:46:52.336Z,94.60
2017-08-25T23:49:20.598Z,94.70
2017-08-25T23:51:48.097Z,94.70
2017-08-25T23:54:16.372Z,94.90
2017-08-25T23:56:44.629Z,94.70
2017-08-25T23:59:12.905Z,94.80
